createdAt,value
2018-04-08T00:00:43.485Z,8.73
2018-04-08T00:03:09.083Z,8.10
2018-04-08T00:05:34.640Z,7.83
2018-04-08T00:08:01.007Z,7.80
2018-04-08T00:10:26.565Z,8.73
2018-04-08T00:12:52.127Z,9.60
2018-04-08T00:15:18.068Z,8.33
2018-04-08T00:17:43.611Z,8.57
2018-04-08T00:20:09.161Z,8.27
2018-04-08T00:22:34.960Z,8.60
2018-04-08T00:25:00.498Z,8.97
2018-04-08T00:27:26.039Z,9.33
2018-04-08T00:29:51.830Z,9.03
2018-04-08T00:32:17.433Z,9.53
2018-04-08T00:34:42.972Z,10.40
2018-04-08T00:37:08.702Z,9.67
2018-04-08T00:39:34.244Z,9.63
2018-04-08T00:41:59.818Z,8.83
2018-04-08T00:44:25.672Z,10.85
2018-04-08T00:46:51.234Z,9.80
2018-04-08T00:49:16.874Z,9.53
2018-04-08T00:51:42.713Z,8.57
2018-04-08T00:54:30.043Z,9.00
2018-04-08T00:56:55.935Z,8.77
2018-04-08T00:59:21.488Z,9.80
2018-04-08T01:01:47.051Z,10.90
2018-04-08T01:04:12.810Z,9.87
2018-04-08T01:06:38.344Z,8.77
2018-04-08T01:09:04.779Z,8.53
2018-04-08T01:11:30.511Z,9.00
2018-04-08T01:13:56.052Z,11.43
2018-04-08T01:16:21.608Z,10.13
2018-04-08T01:18:47.490Z,10.67
2018-04-08T01:21:13.073Z,8.90
2018-04-08T01:23:38.610Z,10.37
2018-04-08T01:26:04.370Z,9.53
2018-04-08T01:28:29.943Z,8.87
2018-04-08T01:30:55.551Z,9.10
2018-04-08T01:33:21.369Z,8.93
2018-04-08T01:35:46.947Z,8.93
2018-04-08T01:38:12.502Z,9.07
2018-04-08T01:40:38.228Z,9.07
2018-04-08T01:43:03.771Z,8.20
2018-04-08T01:45:29.382Z,8.87
2018-04-08T01:47:55.064Z,8.43
2018-04-08T01:50:20.610Z,7.97
2018-04-08T01:52:46.222Z,9.33
2018-04-08T01:55:12.040Z,8.77
2018-04-08T01:57:37.591Z,8.67
2018-04-08T02:00:03.128Z,8.57
2018-04-08T02:02:28.858Z,9.53
2018-04-08T02:04:54.412Z,9.30
2018-04-08T02:07:19.949Z,10.10
2018-04-08T02:09:45.749Z,11.00
2018-04-08T02:12:11.790Z,9.23
2018-04-08T02:14:37.365Z,9.07
2018-04-08T02:17:03.170Z,8.60
2018-04-08T02:19:28.750Z,8.40
2018-04-08T02:21:54.326Z,8.10
2018-04-08T02:24:20.114Z,8.83
2018-04-08T02:26:45.663Z,9.53
2018-04-08T02:29:11.198Z,9.70
2018-04-08T02:31:37.292Z,9.60
2018-04-08T02:34:02.830Z,9.83
2018-04-08T02:36:28.389Z,9.00
2018-04-08T02:38:54.171Z,9.03
2018-04-08T02:41:19.727Z,8.97
2018-04-08T02:43:45.270Z,9.73
2018-04-08T02:46:11.147Z,8.77
2018-04-08T02:48:36.706Z,8.23
2018-04-08T02:51:02.252Z,8.77
2018-04-08T02:53:28.034Z,8.97
2018-04-08T02:55:53.570Z,8.20
2018-04-08T02:58:19.146Z,8.47
2018-04-08T03:00:45.079Z,8.50
2018-04-08T03:03:10.619Z,7.83
2018-04-08T03:05:36.206Z,8.50
2018-04-08T03:08:01.907Z,8.23
2018-04-08T03:10:27.452Z,8.50
2018-04-08T03:12:53.019Z,8.47
2018-04-08T03:15:19.693Z,7.10
2018-04-08T03:17:45.298Z,6.50
2018-04-08T03:20:10.847Z,5.60
2018-04-08T03:22:36.671Z,4.97
2018-04-08T03:25:02.220Z,6.43
2018-04-08T03:27:27.835Z,6.70
2018-04-08T03:29:53.566Z,6.03
2018-04-08T03:32:19.109Z,6.10
2018-04-08T03:34:44.664Z,6.53
2018-04-08T03:37:10.521Z,5.90
2018-04-08T03:39:36.106Z,5.37
2018-04-08T03:42:01.671Z,5.70
2018-04-08T03:44:27.515Z,5.90
2018-04-08T03:46:53.051Z,5.77
2018-04-08T03:49:18.609Z,5.73
2018-04-08T03:51:44.400Z,6.68
2018-04-08T03:54:09.937Z,6.40
2018-04-08T03:56:35.503Z,5.40
2018-04-08T03:59:01.357Z,5.60
2018-04-08T04:01:26.985Z,5.90
2018-04-08T04:03:52.558Z,5.93
2018-04-08T04:06:18.357Z,5.70
2018-04-08T04:08:43.941Z,5.20
2018-04-08T04:11:09.515Z,6.40
2018-04-08T04:13:35.344Z,6.37
2018-04-08T04:16:00.901Z,7.00
2018-04-08T04:19:04.914Z,6.30
2018-04-08T04:22:08.053Z,6.50
2018-04-08T04:25:10.827Z,5.93
2018-04-08T04:27:36.373Z,6.37
2018-04-08T04:30:01.915Z,6.87
2018-04-08T04:32:27.686Z,6.63
2018-04-08T04:34:53.262Z,7.10
2018-04-08T04:37:18.821Z,8.17
2018-04-08T04:39:45.124Z,8.70
2018-04-08T04:42:10.689Z,7.97
2018-04-08T04:44:36.254Z,8.43
2018-04-08T04:47:02.036Z,8.50
2018-04-08T04:49:27.649Z,8.60
2018-04-08T04:51:53.241Z,8.13
2018-04-08T04:54:19.011Z,7.00
2018-04-08T04:56:44.591Z,7.13
2018-04-08T04:59:10.137Z,7.40
2018-04-08T05:01:35.998Z,6.73
2018-04-08T05:04:01.552Z,7.07
2018-04-08T05:06:27.077Z,7.00
2018-04-08T05:08:52.782Z,8.07
2018-04-08T05:11:18.371Z,7.60
2018-04-08T05:13:43.929Z,6.67
2018-04-08T05:16:09.751Z,7.53
2018-04-08T05:18:35.417Z,7.03
2018-04-08T05:21:01.711Z,7.03
2018-04-08T05:23:27.488Z,6.60
2018-04-08T05:25:53.035Z,6.93
2018-04-08T05:28:18.614Z,7.30
2018-04-08T05:30:44.372Z,7.60
2018-04-08T05:33:09.952Z,7.63
2018-04-08T05:35:35.516Z,8.37
2018-04-08T05:38:01.434Z,9.43
2018-04-08T05:40:28.061Z,10.20
2018-04-08T05:42:53.606Z,12.03
2018-04-08T05:45:19.441Z,10.40
2018-04-08T05:47:45.064Z,12.47
2018-04-08T05:50:10.828Z,10.33
2018-04-08T05:52:36.606Z,10.10
2018-04-08T05:55:02.143Z,9.83
2018-04-08T05:57:27.694Z,10.63
2018-04-08T05:59:53.476Z,10.43
2018-04-08T06:02:19.022Z,9.60
2018-04-08T06:04:44.595Z,10.40
2018-04-08T06:07:10.388Z,10.13
2018-04-08T06:09:35.947Z,10.30
2018-04-08T06:12:01.498Z,10.13
2018-04-08T06:14:27.240Z,11.10
2018-04-08T06:16:52.854Z,10.23
2018-04-08T06:19:18.419Z,10.77
2018-04-08T06:21:44.868Z,10.90
2018-04-08T06:24:11.013Z,10.80
2018-04-08T06:26:36.571Z,10.67
2018-04-08T06:29:02.314Z,10.93
2018-04-08T06:31:27.857Z,10.47
2018-04-08T06:33:53.398Z,10.73
2018-04-08T06:36:19.309Z,10.63
2018-04-08T06:38:44.842Z,9.87
2018-04-08T06:41:10.401Z,10.70
2018-04-08T06:43:36.200Z,11.20
2018-04-08T06:46:01.732Z,10.63
2018-04-08T06:48:27.277Z,10.50
2018-04-08T06:50:53.124Z,12.03
2018-04-08T06:53:18.695Z,10.33
2018-04-08T06:55:44.310Z,10.47
2018-04-08T06:58:10.231Z,9.77
2018-04-08T07:00:35.784Z,10.50
2018-04-08T07:03:01.342Z,16.50
2018-04-08T07:05:27.374Z,14.63
2018-04-08T07:07:52.947Z,12.70
2018-04-08T07:10:18.496Z,10.53
2018-04-08T07:12:44.312Z,10.30
2018-04-08T07:15:09.925Z,11.43
2018-04-08T07:17:35.473Z,12.40
2018-04-08T07:20:01.704Z,10.50
2018-04-08T07:22:27.246Z,10.50
2018-04-08T07:24:52.844Z,9.90
2018-04-08T07:27:18.987Z,10.50
2018-04-08T07:29:44.590Z,11.00
2018-04-08T07:32:10.151Z,11.37
2018-04-08T07:34:35.978Z,11.20
2018-04-08T07:37:01.524Z,10.57
2018-04-08T07:39:27.100Z,11.37
2018-04-08T07:41:52.850Z,11.37
2018-04-08T07:44:18.415Z,12.00
2018-04-08T07:46:43.970Z,11.77
2018-04-08T07:49:09.674Z,11.17
2018-04-08T07:51:35.220Z,11.87
2018-04-08T07:54:00.921Z,14.33
2018-04-08T07:56:26.868Z,12.40
2018-04-08T07:58:52.442Z,10.93
2018-04-08T08:01:18.024Z,11.50
2018-04-08T08:03:43.888Z,12.48
2018-04-08T08:06:09.476Z,12.27
2018-04-08T08:08:35.024Z,11.30
2018-04-08T08:11:00.935Z,11.13
2018-04-08T08:13:26.479Z,10.23
2018-04-08T08:15:52.044Z,11.07
2018-04-08T08:18:17.804Z,11.17
2018-04-08T08:20:43.384Z,13.57
2018-04-08T08:23:09.039Z,11.67
2018-04-08T08:25:35.265Z,10.53
2018-04-08T08:28:01.274Z,11.43
2018-04-08T08:30:27.085Z,11.70
2018-04-08T08:32:52.959Z,11.40
2018-04-08T08:35:18.728Z,11.63
2018-04-08T08:37:44.465Z,10.93
2018-04-08T08:40:10.236Z,11.20
2018-04-08T08:42:35.804Z,11.23
2018-04-08T08:45:01.416Z,11.30
2018-04-08T08:47:27.188Z,10.73
2018-04-08T08:49:52.771Z,11.10
2018-04-08T08:52:18.386Z,11.63
2018-04-08T08:54:44.411Z,11.30
2018-04-08T08:57:09.998Z,13.23
2018-04-08T08:59:35.601Z,13.53
2018-04-08T09:02:01.380Z,12.67
2018-04-08T09:04:26.949Z,11.23
2018-04-08T09:06:52.508Z,12.20
2018-04-08T09:09:18.325Z,11.80
2018-04-08T09:11:43.886Z,11.23
2018-04-08T09:14:09.427Z,11.93
2018-04-08T09:16:35.283Z,12.33
2018-04-08T09:19:00.815Z,11.63
2018-04-08T09:21:44.686Z,10.70
2018-04-08T09:26:01.284Z,11.20
2018-04-08T09:28:27.508Z,11.80
2018-04-08T09:30:53.319Z,12.30
2018-04-08T09:33:18.941Z,13.23
2018-04-08T09:35:44.682Z,11.87
2018-04-08T09:38:10.218Z,11.73
2018-04-08T09:40:35.770Z,12.27
2018-04-08T09:43:01.546Z,11.80
2018-04-08T09:45:27.090Z,11.83
2018-04-08T09:47:52.681Z,11.47
2018-04-08T09:50:18.557Z,11.80
2018-04-08T09:52:44.097Z,12.67
2018-04-08T09:55:09.740Z,14.63
2018-04-08T09:57:41.134Z,12.97
2018-04-08T10:00:06.735Z,12.83
2018-04-08T10:02:32.285Z,12.20
2018-04-08T10:04:58.037Z,12.13
2018-04-08T10:07:23.678Z,11.97
2018-04-08T10:09:49.248Z,12.43
2018-04-08T10:12:15.215Z,12.03
2018-04-08T10:14:41.171Z,11.10
2018-04-08T10:17:06.790Z,12.50
2018-04-08T10:19:33.577Z,12.67
2018-04-08T10:21:59.096Z,14.50
2018-04-08T10:24:24.637Z,12.93
2018-04-08T10:26:50.495Z,12.70
2018-04-08T10:29:16.323Z,11.73
2018-04-08T10:31:42.033Z,13.00
2018-04-08T10:34:07.740Z,12.40
2018-04-08T10:36:33.301Z,12.93
2018-04-08T10:38:58.851Z,12.33
2018-04-08T10:41:24.593Z,12.70
2018-04-08T10:43:50.205Z,14.20
2018-04-08T10:46:15.807Z,13.40
2018-04-08T10:48:41.780Z,13.40
2018-04-08T10:51:07.453Z,13.57
2018-04-08T10:53:33.007Z,13.57
2018-04-08T10:55:58.859Z,13.30
2018-04-08T10:58:24.468Z,12.43
2018-04-08T11:00:50.022Z,13.40
2018-04-08T11:03:15.951Z,13.13
2018-04-08T11:05:41.509Z,14.80
2018-04-08T11:08:07.073Z,14.03
2018-04-08T11:10:32.828Z,14.20
2018-04-08T11:12:58.377Z,13.03
2018-04-08T11:15:23.936Z,12.50
2018-04-08T11:17:49.766Z,13.00
2018-04-08T11:20:15.308Z,15.03
2018-04-08T11:22:40.859Z,13.87
2018-04-08T11:25:06.597Z,14.70
2018-04-08T11:27:32.201Z,13.80
2018-04-08T11:29:57.819Z,17.57
2018-04-08T11:32:23.723Z,13.57
2018-04-08T11:34:49.458Z,14.77
2018-04-08T11:37:15.007Z,13.37
2018-04-08T11:39:40.721Z,14.20
2018-04-08T11:42:06.398Z,13.27
2018-04-08T11:44:31.952Z,12.63
2018-04-08T11:46:57.669Z,12.73
2018-04-08T11:49:23.220Z,12.40
2018-04-08T11:51:48.762Z,12.00
2018-04-08T11:54:14.474Z,11.97
2018-04-08T11:56:40.076Z,12.20
2018-04-08T11:59:05.652Z,11.20
2018-04-08T12:01:31.325Z,12.13
2018-04-08T12:03:56.862Z,11.93
2018-04-08T12:06:22.408Z,12.10
2018-04-08T12:08:48.227Z,11.93
2018-04-08T12:11:13.779Z,12.57
2018-04-08T12:13:39.338Z,12.40
2018-04-08T12:16:05.212Z,11.53
2018-04-08T12:18:30.770Z,11.20
2018-04-08T12:20:56.364Z,10.87
2018-04-08T12:23:22.056Z,12.93
2018-04-08T12:25:47.600Z,11.33
2018-04-08T12:28:13.158Z,10.43
2018-04-08T12:30:38.945Z,11.47
2018-04-08T12:33:04.504Z,10.43
2018-04-08T12:35:30.377Z,9.73
2018-04-08T12:37:56.339Z,10.20
2018-04-08T12:40:21.889Z,9.07
2018-04-08T12:42:47.434Z,8.63
2018-04-08T12:45:13.272Z,9.00
2018-04-08T12:47:38.817Z,10.77
2018-04-08T12:50:04.397Z,9.60
2018-04-08T12:52:30.133Z,9.03
2018-04-08T12:54:55.765Z,9.60
2018-04-08T12:57:21.347Z,9.47
2018-04-08T12:59:47.282Z,8.57
2018-04-08T13:02:12.910Z,8.87
2018-04-08T13:04:38.464Z,9.80
2018-04-08T13:07:04.204Z,8.13
2018-04-08T13:09:29.788Z,8.20
2018-04-08T13:11:55.369Z,8.75
2018-04-08T13:14:21.076Z,7.80
2018-04-08T13:16:46.646Z,7.53
2018-04-08T13:19:12.279Z,7.50
2018-04-08T13:21:38.060Z,8.67
2018-04-08T13:24:03.661Z,7.67
2018-04-08T13:26:29.239Z,8.13
2018-04-08T13:28:55.106Z,7.50
2018-04-08T13:31:20.649Z,8.07
2018-04-08T13:33:46.209Z,8.90
2018-04-08T13:36:12.122Z,7.10
2018-04-08T13:38:37.981Z,8.30
2018-04-08T13:41:03.798Z,7.60
2018-04-08T13:43:29.504Z,7.90
2018-04-08T13:45:55.056Z,7.80
2018-04-08T13:48:20.617Z,7.50
2018-04-08T13:50:46.392Z,9.57
2018-04-08T13:53:11.927Z,8.57
2018-04-08T13:55:37.503Z,7.57
2018-04-08T13:58:03.270Z,7.80
2018-04-08T14:00:28.814Z,7.73
2018-04-08T14:02:54.363Z,8.60
2018-04-08T14:05:20.251Z,7.07
2018-04-08T14:07:45.839Z,7.53
2018-04-08T14:10:11.391Z,8.20
2018-04-08T14:12:37.267Z,6.90
2018-04-08T14:15:02.801Z,6.40
2018-04-08T14:17:28.347Z,7.30
2018-04-08T14:19:54.116Z,7.40
2018-04-08T14:22:19.647Z,6.80
2018-04-08T14:24:45.381Z,6.90
2018-04-08T14:27:11.077Z,6.57
2018-04-08T14:29:36.691Z,6.47
2018-04-08T14:32:02.235Z,6.60
2018-04-08T14:34:28.076Z,7.07
2018-04-08T14:36:53.638Z,6.90
2018-04-08T14:39:19.194Z,6.00
2018-04-08T14:41:45.203Z,6.10
2018-04-08T14:44:11.135Z,6.00
2018-04-08T14:46:36.742Z,5.83
2018-04-08T14:49:02.435Z,5.97
2018-04-08T14:51:27.980Z,5.80
2018-04-08T14:53:53.529Z,5.47
2018-04-08T14:56:19.282Z,4.87
2018-04-08T14:58:44.843Z,5.90
2018-04-08T15:01:10.511Z,5.80
2018-04-08T15:03:36.379Z,6.80
2018-04-08T15:06:01.951Z,6.07
2018-04-08T15:08:27.516Z,6.07
2018-04-08T15:10:53.291Z,5.90
2018-04-08T15:13:18.969Z,5.63
2018-04-08T15:15:44.535Z,6.10
2018-04-08T15:18:10.262Z,5.57
2018-04-08T15:20:35.819Z,6.10
2018-04-08T15:23:01.422Z,6.00
2018-04-08T15:25:27.302Z,6.80
2018-04-08T15:27:52.861Z,6.95
2018-04-08T15:30:18.472Z,6.10
2018-04-08T15:32:44.290Z,6.83
2018-04-08T15:35:09.844Z,5.90
2018-04-08T15:37:35.402Z,6.07
2018-04-08T15:40:01.204Z,6.93
2018-04-08T15:42:27.223Z,6.27
2018-04-08T15:44:53.107Z,6.27
2018-04-08T15:47:19.011Z,6.47
2018-04-08T15:49:44.567Z,6.37
2018-04-08T15:52:10.126Z,5.90
2018-04-08T15:54:35.912Z,6.37
2018-04-08T15:57:01.509Z,6.57
2018-04-08T15:59:27.053Z,6.03
2018-04-08T16:01:52.944Z,5.60
2018-04-08T16:04:18.515Z,6.70
2018-04-08T16:06:44.067Z,6.13
2018-04-08T16:09:09.955Z,4.53
2018-04-08T16:11:35.542Z,4.57
2018-04-08T16:14:01.151Z,4.00
2018-04-08T16:16:26.945Z,4.40
2018-04-08T16:18:52.551Z,4.07
2018-04-08T16:21:18.172Z,4.80
2018-04-08T16:23:43.888Z,4.17
2018-04-08T16:26:09.430Z,4.40
2018-04-08T16:28:34.980Z,3.80
2018-04-08T16:31:00.794Z,3.83
2018-04-08T16:33:26.390Z,3.90
2018-04-08T16:35:52.007Z,4.20
2018-04-08T16:38:17.871Z,5.30
2018-04-08T16:40:43.402Z,3.80
2018-04-08T16:43:08.984Z,4.17
2018-04-08T16:45:35.066Z,4.40
2018-04-08T16:48:00.857Z,4.80
2018-04-08T16:50:26.386Z,5.03
2018-04-08T16:52:52.266Z,4.53
2018-04-08T16:55:17.802Z,4.73
2018-04-08T16:57:43.346Z,4.83
2018-04-08T17:00:09.180Z,4.90
2018-04-08T17:02:34.771Z,4.33
2018-04-08T17:05:00.380Z,5.00
2018-04-08T17:07:26.222Z,4.97
2018-04-08T17:09:51.789Z,4.80
2018-04-08T17:12:17.340Z,5.30
2018-04-08T17:14:43.089Z,5.17
2018-04-08T17:17:08.631Z,4.30
2018-04-08T17:19:34.235Z,4.70
2018-04-08T17:21:59.925Z,4.70
2018-04-08T17:24:25.491Z,4.20
2018-04-08T17:26:51.069Z,5.07
2018-04-08T17:29:16.863Z,4.30
2018-04-08T17:31:42.422Z,4.50
2018-04-08T17:34:08.032Z,4.23
2018-04-08T17:36:33.833Z,4.07
2018-04-08T17:38:59.437Z,4.60
2018-04-08T17:41:24.973Z,5.10
2018-04-08T17:43:50.926Z,4.20
2018-04-08T17:46:16.482Z,4.53
2018-04-08T17:48:42.412Z,4.70
2018-04-08T17:51:08.334Z,3.73
2018-04-08T17:53:33.888Z,4.90
2018-04-08T17:55:59.441Z,4.87
2018-04-08T17:58:25.192Z,4.30
2018-04-08T18:00:50.760Z,4.70
2018-04-08T18:03:16.389Z,4.90
2018-04-08T18:05:42.156Z,4.83
2018-04-08T18:08:07.766Z,4.73
2018-04-08T18:10:33.325Z,4.90
2018-04-08T18:12:59.029Z,5.13
2018-04-08T18:15:24.576Z,5.27
2018-04-08T18:17:50.935Z,4.40
2018-04-08T18:20:18.534Z,5.10
2018-04-08T18:22:44.452Z,5.22
2018-04-08T18:25:10.204Z,4.90
2018-04-08T18:32:39.525Z,4.90
2018-04-08T18:35:05.135Z,5.00
2018-04-08T18:37:30.852Z,5.30
2018-04-08T18:39:56.405Z,5.10
2018-04-08T18:42:22.113Z,5.17
2018-04-08T18:44:47.656Z,5.57
2018-04-08T18:47:13.680Z,4.77
2018-04-08T18:49:39.537Z,5.30
2018-04-08T18:52:05.419Z,4.70
2018-04-08T18:54:30.971Z,5.97
2018-04-08T18:56:56.513Z,5.20
2018-04-08T18:59:23.028Z,4.90
2018-04-08T19:01:48.591Z,5.55
2018-04-08T19:04:14.893Z,5.03
2018-04-08T19:06:40.479Z,5.70
2018-04-08T19:09:06.682Z,4.27
2018-04-08T19:11:32.394Z,4.97
2018-04-08T19:13:58.541Z,5.13
2018-04-08T19:16:24.344Z,4.47
2018-04-08T19:18:50.580Z,4.67
2018-04-08T19:21:16.204Z,4.30
2018-04-08T19:23:41.959Z,4.40
2018-04-08T19:26:07.643Z,4.50
2018-04-08T19:28:33.502Z,5.10
2018-04-08T19:30:59.073Z,4.87
2018-04-08T19:33:24.860Z,4.47
2018-04-08T19:35:50.438Z,4.37
2018-04-08T19:38:16.338Z,4.80
2018-04-08T19:40:41.896Z,4.37
2018-04-08T19:43:07.681Z,5.10
2018-04-08T19:45:33.226Z,4.90
2018-04-08T19:47:59.168Z,3.93
2018-04-08T19:50:24.730Z,4.20
2018-04-08T19:52:50.817Z,4.37
2018-04-08T19:55:16.363Z,4.37
2018-04-08T19:57:42.914Z,4.50
2018-04-08T20:00:08.630Z,3.53
2018-04-08T20:02:35.333Z,4.10
2018-04-08T20:05:00.941Z,3.87
2018-04-08T20:07:26.605Z,3.70
2018-04-08T20:09:52.162Z,3.77
2018-04-08T20:12:17.902Z,4.80
2018-04-08T20:14:43.451Z,4.33
2018-04-08T20:17:09.209Z,4.43
2018-04-08T20:19:34.775Z,4.37
2018-04-08T20:22:00.615Z,4.37
2018-04-08T20:24:26.162Z,4.63
2018-04-08T20:26:51.848Z,4.10
2018-04-08T20:29:17.451Z,4.50
2018-04-08T20:31:43.173Z,4.30
2018-04-08T20:34:08.727Z,4.60
2018-04-08T20:36:34.528Z,4.90
2018-04-08T20:39:00.079Z,4.47
2018-04-08T20:41:25.853Z,4.17
2018-04-08T20:43:51.740Z,4.03
2018-04-08T20:46:17.394Z,4.13
2018-04-08T20:48:43.165Z,4.57
2018-04-08T20:51:08.726Z,4.60
2018-04-08T20:53:35.422Z,4.50
2018-04-08T20:56:00.974Z,4.53
2018-04-08T20:58:27.083Z,4.80
2018-04-08T21:00:52.617Z,5.45
2018-04-08T21:03:18.365Z,5.13
2018-04-08T21:05:43.897Z,5.80
2018-04-08T21:08:09.673Z,5.40
2018-04-08T21:10:35.222Z,6.30
2018-04-08T21:13:01.010Z,5.10
2018-04-08T21:15:26.571Z,5.80
2018-04-08T21:17:52.335Z,5.83
2018-04-08T21:20:18.101Z,5.70
2018-04-08T21:22:43.654Z,6.33
2018-04-08T21:25:09.373Z,6.10
2018-04-08T21:27:34.977Z,5.90
2018-04-08T21:30:00.758Z,7.00
2018-04-08T21:32:26.297Z,6.77
2018-04-08T21:34:51.985Z,5.73
2018-04-08T21:37:17.564Z,5.67
2018-04-08T21:39:43.251Z,5.67
2018-04-08T21:42:08.813Z,5.83
2018-04-08T21:44:34.513Z,5.87
2018-04-08T21:47:00.112Z,5.60
2018-04-08T21:49:25.859Z,5.73
2018-04-08T21:51:51.421Z,5.13
2018-04-08T21:54:17.308Z,5.47
2018-04-08T21:56:42.842Z,5.70
2018-04-08T21:59:08.622Z,6.17
2018-04-08T22:01:34.181Z,5.43
2018-04-08T22:03:59.868Z,5.90
2018-04-08T22:06:25.654Z,5.80
2018-04-08T22:08:51.211Z,6.10
2018-04-08T22:11:17.035Z,5.93
2018-04-08T22:13:42.572Z,5.80
2018-04-08T22:16:08.118Z,6.80
2018-04-08T22:18:33.873Z,6.03
2018-04-08T22:20:59.416Z,6.17
2018-04-08T22:23:25.197Z,5.63
2018-04-08T22:25:50.678Z,5.83
2018-04-08T22:28:16.331Z,5.63
2018-04-08T22:30:41.888Z,6.13
2018-04-08T22:33:07.570Z,5.83
2018-04-08T22:35:33.127Z,6.37
2018-04-08T22:37:58.885Z,5.73
2018-04-08T22:40:24.467Z,6.20
2018-04-08T22:42:50.251Z,6.13
2018-04-08T22:45:15.800Z,6.40
2018-04-08T22:47:41.566Z,6.13
2018-04-08T22:50:07.133Z,5.97
2018-04-08T22:55:04.198Z,6.30
2018-04-08T22:57:29.944Z,6.40
2018-04-08T22:59:55.514Z,6.13
2018-04-08T23:04:53.625Z,7.10
2018-04-08T23:07:19.430Z,6.40
2018-04-08T23:09:44.978Z,6.47
2018-04-08T23:12:10.728Z,6.63
2018-04-08T23:14:36.276Z,5.50
2018-04-08T23:17:02.006Z,5.57
2018-04-08T23:19:27.606Z,6.23
2018-04-08T23:21:53.362Z,5.53
2018-04-08T23:24:18.910Z,5.77
2018-04-08T23:26:45.031Z,5.97
2018-04-08T23:29:10.575Z,6.23
2018-04-08T23:31:36.388Z,6.83
2018-04-08T23:34:01.942Z,6.60
2018-04-08T23:36:27.496Z,6.20
2018-04-08T23:38:53.256Z,6.40
2018-04-08T23:41:18.796Z,6.23
2018-04-08T23:43:44.639Z,6.70
2018-04-08T23:46:10.204Z,6.43
2018-04-08T23:48:35.865Z,6.60
2018-04-08T23:51:01.439Z,6.50
2018-04-08T23:53:27.124Z,6.17
2018-04-08T23:55:52.724Z,6.70
2018-04-08T23:58:18.429Z,6.63
